Vichy, Missouri
Current Conditions -  °F | °C
As of 12:53 PM on Thursday 23 Oct 2014 (Local Time) from KVIH Reporting Station
Broken Clouds Broken Clouds  
Wind Chill: 60°   Ceiling: 9500
Heat Index: 60°   Visibility: 10mi
Dew Point: 46°   Wind: 13mph
Humidity: 60%   Direction: 200°SSW
Pressure: 30.15"   Gusts: NA
Location:  38.11°N, 91.76°W
Report Text: KVIH 231753Z AUTO 20011KT 10SM BKN095 16/08 A3015 RMK AO2 SLP208 T01560078 10156 20072 58009
Loading
Personal Weather Stations






























Interactive Weather Map
Tropical Storm Tracking
New forecast layout! Learn more

10-Day Weather Forecast

Advertisements
Track Severe Weather on mobile